Weather at HonorHealth Scottsdale Osborn Medical Center Heliport

Public forecast

Using degrees Fahrenheit for public forecast. Weather courtesy of forecast.io.

Closest aviation weather report (METAR) to HonorHealth Scottsdale Osborn Medical Center Heliport

Closest report is Phoenix Sky Harbor International Airport, 5.2 nm (9.7 km) SW.

2024/07/17 11:51 (retrieved 1 hour ago)

KPHX 171151Z 04006KT 10SM FEW130 FEW190 34/16 A2984 RMK AO2 SLP081 T03390156 10378 20333 52015

Closest aviation forecast (TAF) to HonorHealth Scottsdale Osborn Medical Center Heliport

Closest forecast is Phoenix Sky Harbor International Airport, 5.2 nm (9.7 km) SW.

2024/07/17 12:00 Ammendment (retrieved 52 minutes ago)

TAF AMD KPHX 171158Z 1712/1818 VRB05KT P6SM FEW150 TEMPO 1712/1714 08006KT FM171700 27007KT P6SM FEW150 FM172100 27012G20KT P6SM FEW140 FEW250 FM180300 29010KT P6SM FEW130 FEW250 FM181100 VRB05KT P6SM SCT150 SCT250